Terminal Aerodrome Forecast
Issued by NWS Tuscon, AZ

Home | Current Version | Previous Version | Text Only | Print | Product List | Glossary On
Versions: 1 2 3 4 5 6 7 8 9 10 11 12
658
FTUS45 KTWC 182341
TAFDUG
TAF
KDUG 182341Z 1900/1924 05005KT P6SM FEW250
     FM190200 09010KT P6SM SCT250
     FM191000 03008KT P6SM SCT250=

USA.gov is the U.S. government's official web portal to all federal, state and local government web resources and services.